Dn Vatan — TCZN6 — position and weather

sailwx.info

Track history (hours):
 
Tides and Currents Weather Stations Pressure Air Temp Water Temp Dewpoint Dewpoint Depression Visibility Wind Speed Wind Dir Waves Ship Positions

Dn Vatan

Last reported at 2015-Apr-03 11:33 UTC. Time now 2015-Apr-18 03:25 UTC.
Position S 29°26' E 031°41'.
Warning: this ship's position is 14 days out of date.

Length 196 m; draft 6.6 m.

Type: Cargo ship. MMSI: 270991365.

Date/timePositionNaut miles runAvg speedWind from/ knotsBaromVisibWave heightAir tempDewpointWater temp
2015-Apr-03 11:33S 29°26' E 031°41'1413.7
2015-Apr-03 10:33S 29°35' E 031°30'1313.6
2015-Apr-03 09:33S 29°45' E 031°20'9 8.9
2015-Apr-03 08:33S 29°50' E 031°11'1 0.9
2015-Apr-03 07:33S 29°51' E 031°11'2 1.9
2015-Apr-03 06:33S 29°53' E 031°11'4 4.0
2015-Apr-03 05:32S 29°57' E 031°11'4 4.5
2015-Apr-03 04:33S 30°01' E 031°14'6 6.2
2015-Apr-03 03:33S 30°07' E 031°15'1212.2
2015-Apr-03 02:33S 30°18' E 031°09'43010.2
2015-Apr-01 08:26S 35°02' E 024°46'15410.3
2015-Mar-31 17:29S 35°42' E 021°44'3012.4
2015-Mar-31 15:06S 35°49' E 021°08'1212.5
2015-Mar-31 14:10S 35°52' E 020°54'1810.9
2015-Mar-31 12:29S 35°56' E 020°32'  
Track history (hours):
 
Tides and Currents Weather Stations Pressure Air Temp Water Temp Dewpoint Dewpoint Depression Visibility Wind Speed Wind Dir Waves Ship Positions

Dn Vatan

Last reported at 2015-Apr-03 11:33 UTC. Time now 2015-Apr-18 03:25 UTC.
Position S 29°26' E 031°41'.
Warning: this ship's position is 14 days out of date.

Length 196 m; draft 6.6 m.

Type: Cargo ship. MMSI: 270991365.

Date/timePositionNaut miles runAvg speedWind from/ knotsBaromVisibWave heightAir tempDewpointWater temp
2015-Apr-03 11:33S 29°26' E 031°41'1413.7
2015-Apr-03 10:33S 29°35' E 031°30'1313.6
2015-Apr-03 09:33S 29°45' E 031°20'9 8.9
2015-Apr-03 08:33S 29°50' E 031°11'1 0.9
2015-Apr-03 07:33S 29°51' E 031°11'2 1.9
2015-Apr-03 06:33S 29°53' E 031°11'4 4.0
2015-Apr-03 05:32S 29°57' E 031°11'4 4.5
2015-Apr-03 04:33S 30°01' E 031°14'6 6.2
2015-Apr-03 03:33S 30°07' E 031°15'1212.2
2015-Apr-03 02:33S 30°18' E 031°09'43010.2
2015-Apr-01 08:26S 35°02' E 024°46'15410.3
2015-Mar-31 17:29S 35°42' E 021°44'3012.4
2015-Mar-31 15:06S 35°49' E 021°08'1212.5
2015-Mar-31 14:10S 35°52' E 020°54'1810.9
2015-Mar-31 12:29S 35°56' E 020°32'  

Dump ship's entire track history